sensor_id;sensor_type;location;lat;lon;timestamp;pressure;altitude;pressure_sealevel;temperature;humidity
8477;BME280;4275;42.854;23.222;2023-08-08T00:01:22;107971.50;;;-141.02;100.00
8477;BME280;4275;42.854;23.222;2023-08-08T00:03:50;107971.50;;;-141.02;100.00
8477;BME280;4275;42.854;23.222;2023-08-08T00:06:17;107971.50;;;-141.02;100.00
8477;BME280;4275;42.854;23.222;2023-08-08T00:08:44;107971.50;;;-141.02;100.00
8477;BME280;4275;42.854;23.222;2023-08-08T00:11:12;107971.50;;;-141.02;100.00
8477;BME280;4275;42.854;23.222;2023-08-08T00:13:39;107971.50;;;-141.02;100.00
8477;BME280;4275;42.854;23.222;2023-08-08T00:16:06;107971.50;;;-141.02;100.00
8477;BME280;4275;42.854;23.222;2023-08-08T00:18:33;107971.50;;;-141.02;100.00
8477;BME280;4275;42.854;23.222;2023-08-08T00:21:00;107971.50;;;-141.02;100.00
8477;BME280;4275;42.854;23.222;2023-08-08T00:23:27;107971.50;;;-141.02;100.00
8477;BME280;4275;42.854;23.222;2023-08-08T00:25:54;107971.50;;;-141.02;100.00
8477;BME280;4275;42.854;23.222;2023-08-08T00:28:22;107971.50;;;-141.02;100.00
8477;BME280;4275;42.854;23.222;2023-08-08T00:30:50;107971.50;;;-141.02;100.00
8477;BME280;4275;42.854;23.222;2023-08-08T00:33:17;107971.50;;;-141.02;100.00
8477;BME280;4275;42.854;23.222;2023-08-08T00:35:47;107971.50;;;-141.02;100.00
8477;BME280;4275;42.854;23.222;2023-08-08T00:38:14;107971.50;;;-141.02;100.00
8477;BME280;4275;42.854;23.222;2023-08-08T00:40:44;107971.50;;;-141.02;100.00
8477;BME280;4275;42.854;23.222;2023-08-08T00:43:11;107971.50;;;-141.02;100.00
8477;BME280;4275;42.854;23.222;2023-08-08T00:45:42;107971.50;;;-141.02;100.00
8477;BME280;4275;42.854;23.222;2023-08-08T00:48:09;107971.50;;;-141.02;100.00
8477;BME280;4275;42.854;23.222;2023-08-08T00:50:37;107971.50;;;-141.02;100.00
8477;BME280;4275;42.854;23.222;2023-08-08T00:53:04;107971.50;;;-141.02;100.00
8477;BME280;4275;42.854;23.222;2023-08-08T00:55:31;107971.50;;;-141.02;100.00
8477;BME280;4275;42.854;23.222;2023-08-08T00:57:59;107971.50;;;-141.02;100.00
8477;BME280;4275;42.854;23.222;2023-08-08T01:00:26;107971.50;;;-141.02;100.00
8477;BME280;4275;42.854;23.222;2023-08-08T01:02:57;107971.50;;;-141.02;100.00
8477;BME280;4275;42.854;23.222;2023-08-08T01:05:30;107971.50;;;-141.02;100.00
8477;BME280;4275;42.854;23.222;2023-08-08T01:08:04;107971.50;;;-141.02;100.00
8477;BME280;4275;42.854;23.222;2023-08-08T01:10:34;107971.50;;;-141.02;100.00
8477;BME280;4275;42.854;23.222;2023-08-08T01:13:05;107971.50;;;-141.02;100.00
8477;BME280;4275;42.854;23.222;2023-08-08T01:15:33;107971.50;;;-141.02;100.00
8477;BME280;4275;42.854;23.222;2023-08-08T01:18:07;107971.50;;;-141.02;100.00
8477;BME280;4275;42.854;23.222;2023-08-08T01:20:39;107971.50;;;-141.02;100.00
8477;BME280;4275;42.854;23.222;2023-08-08T01:23:12;107971.50;;;-141.02;100.00
8477;BME280;4275;42.854;23.222;2023-08-08T01:25:43;107971.50;;;-141.02;100.00
8477;BME280;4275;42.854;23.222;2023-08-08T01:28:11;107971.50;;;-141.02;100.00
8477;BME280;4275;42.854;23.222;2023-08-08T01:30:38;107971.50;;;-141.02;100.00
8477;BME280;4275;42.854;23.222;2023-08-08T01:33:05;107971.50;;;-141.02;100.00
8477;BME280;4275;42.854;23.222;2023-08-08T01:35:37;107971.50;;;-141.02;100.00
8477;BME280;4275;42.854;23.222;2023-08-08T01:38:10;107971.50;;;-141.02;100.00
8477;BME280;4275;42.854;23.222;2023-08-08T01:40:38;107971.50;;;-141.02;100.00
8477;BME280;4275;42.854;23.222;2023-08-08T01:43:08;107971.50;;;-141.02;100.00
8477;BME280;4275;42.854;23.222;2023-08-08T01:45:36;107971.50;;;-141.02;100.00
8477;BME280;4275;42.854;23.222;2023-08-08T01:48:07;107971.50;;;-141.02;100.00
8477;BME280;4275;42.854;23.222;2023-08-08T01:50:34;107971.50;;;-141.02;100.00
8477;BME280;4275;42.854;23.222;2023-08-08T01:53:01;107971.50;;;-141.02;100.00
8477;BME280;4275;42.854;23.222;2023-08-08T01:55:28;107971.50;;;-141.02;100.00
8477;BME280;4275;42.854;23.222;2023-08-08T01:57:55;107971.50;;;-141.02;100.00
8477;BME280;4275;42.854;23.222;2023-08-08T02:00:23;107971.50;;;-141.02;100.00
8477;BME280;4275;42.854;23.222;2023-08-08T02:02:50;107971.50;;;-141.02;100.00
8477;BME280;4275;42.854;23.222;2023-08-08T02:05:20;107971.50;;;-141.02;100.00
8477;BME280;4275;42.854;23.222;2023-08-08T02:07:48;107971.50;;;-141.02;100.00
8477;BME280;4275;42.854;23.222;2023-08-08T02:10:15;107971.50;;;-141.02;100.00
8477;BME280;4275;42.854;23.222;2023-08-08T02:12:42;107971.50;;;-141.02;100.00
8477;BME280;4275;42.854;23.222;2023-08-08T02:15:09;107971.50;;;-141.02;100.00
8477;BME280;4275;42.854;23.222;2023-08-08T02:17:38;107971.50;;;-141.02;100.00
8477;BME280;4275;42.854;23.222;2023-08-08T02:20:06;107971.50;;;-141.02;100.00
8477;BME280;4275;42.854;23.222;2023-08-08T02:22:34;107971.50;;;-141.02;100.00
8477;BME280;4275;42.854;23.222;2023-08-08T02:25:01;107971.50;;;-141.02;100.00
8477;BME280;4275;42.854;23.222;2023-08-08T02:27:28;107971.50;;;-141.02;100.00
8477;BME280;4275;42.854;23.222;2023-08-08T02:29:55;107971.50;;;-141.02;100.00
8477;BME280;4275;42.854;23.222;2023-08-08T02:32:23;107971.50;;;-141.02;100.00
8477;BME280;4275;42.854;23.222;2023-08-08T02:34:51;107971.50;;;-141.02;100.00
8477;BME280;4275;42.854;23.222;2023-08-08T02:37:18;107971.50;;;-141.02;100.00
8477;BME280;4275;42.854;23.222;2023-08-08T02:39:45;107971.50;;;-141.02;100.00
8477;BME280;4275;42.854;23.222;2023-08-08T02:42:12;107971.50;;;-141.02;100.00
8477;BME280;4275;42.854;23.222;2023-08-08T02:44:39;107971.50;;;-141.02;100.00
8477;BME280;4275;42.854;23.222;2023-08-08T02:47:06;107971.50;;;-141.02;100.00
8477;BME280;4275;42.854;23.222;2023-08-08T02:49:33;107971.50;;;-141.02;100.00
8477;BME280;4275;42.854;23.222;2023-08-08T02:52:02;107971.50;;;-141.02;100.00
8477;BME280;4275;42.854;23.222;2023-08-08T02:54:28;107971.50;;;-141.02;100.00
8477;BME280;4275;42.854;23.222;2023-08-08T02:57:10;107971.50;;;-141.02;100.00
8477;BME280;4275;42.854;23.222;2023-08-08T02:59:46;107971.50;;;-141.02;100.00
8477;BME280;4275;42.854;23.222;2023-08-08T03:02:14;107971.50;;;-141.02;100.00
8477;BME280;4275;42.854;23.222;2023-08-08T03:04:41;107971.50;;;-141.02;100.00
8477;BME280;4275;42.854;23.222;2023-08-08T03:07:10;107971.50;;;-141.02;100.00
8477;BME280;4275;42.854;23.222;2023-08-08T03:09:42;107971.50;;;-141.02;100.00
8477;BME280;4275;42.854;23.222;2023-08-08T03:12:17;107971.50;;;-141.02;100.00
8477;BME280;4275;42.854;23.222;2023-08-08T03:14:46;107971.50;;;-141.02;100.00
8477;BME280;4275;42.854;23.222;2023-08-08T03:17:13;107971.50;;;-141.02;100.00
8477;BME280;4275;42.854;23.222;2023-08-08T03:19:40;107971.50;;;-141.02;100.00
8477;BME280;4275;42.854;23.222;2023-08-08T03:22:07;107971.50;;;-141.02;100.00
8477;BME280;4275;42.854;23.222;2023-08-08T03:24:35;107971.50;;;-141.02;100.00
8477;BME280;4275;42.854;23.222;2023-08-08T03:27:05;107971.50;;;-141.02;100.00
8477;BME280;4275;42.854;23.222;2023-08-08T03:29:36;107971.50;;;-141.02;100.00
8477;BME280;4275;42.854;23.222;2023-08-08T03:32:04;107971.50;;;-141.02;100.00
8477;BME280;4275;42.854;23.222;2023-08-08T03:34:31;107971.50;;;-141.02;100.00
8477;BME280;4275;42.854;23.222;2023-08-08T03:40:21;107971.50;;;-141.02;100.00
8477;BME280;4275;42.854;23.222;2023-08-08T03:46:36;107971.50;;;-141.02;100.00
8477;BME280;4275;42.854;23.222;2023-08-08T03:49:03;107971.50;;;-141.02;100.00
8477;BME280;4275;42.854;23.222;2023-08-08T03:51:37;107971.50;;;-141.02;100.00
8477;BME280;4275;42.854;23.222;2023-08-08T03:54:33;107971.50;;;-141.02;100.00
8477;BME280;4275;42.854;23.222;2023-08-08T03:57:34;107971.50;;;-141.02;100.00
8477;BME280;4275;42.854;23.222;2023-08-08T04:00:21;107971.50;;;-141.02;100.00
8477;BME280;4275;42.854;23.222;2023-08-08T04:03:06;107971.50;;;-141.02;100.00
8477;BME280;4275;42.854;23.222;2023-08-08T04:09:30;107971.50;;;-141.02;100.00
8477;BME280;4275;42.854;23.222;2023-08-08T04:12:15;107971.50;;;-141.02;100.00
8477;BME280;4275;42.854;23.222;2023-08-08T04:14:45;107971.50;;;-141.02;100.00
8477;BME280;4275;42.854;23.222;2023-08-08T04:17:12;107971.50;;;-141.02;100.00
8477;BME280;4275;42.854;23.222;2023-08-08T04:20:15;107971.50;;;-141.02;100.00
8477;BME280;4275;42.854;23.222;2023-08-08T04:26:41;107971.50;;;-141.02;100.00
8477;BME280;4275;42.854;23.222;2023-08-08T04:32:32;107971.50;;;-141.02;100.00
8477;BME280;4275;42.854;23.222;2023-08-08T04:38:20;107971.50;;;-141.02;100.00
8477;BME280;4275;42.854;23.222;2023-08-08T04:40:50;107971.50;;;-141.02;100.00
8477;BME280;4275;42.854;23.222;2023-08-08T04:43:19;107971.50;;;-141.02;100.00
8477;BME280;4275;42.854;23.222;2023-08-08T04:52:42;107971.50;;;-141.02;100.00
8477;BME280;4275;42.854;23.222;2023-08-08T04:55:35;107971.50;;;-141.02;100.00
8477;BME280;4275;42.854;23.222;2023-08-08T04:58:21;107971.50;;;-141.02;100.00
8477;BME280;4275;42.854;23.222;2023-08-08T05:00:48;107971.50;;;-141.02;100.00
8477;BME280;4275;42.854;23.222;2023-08-08T05:03:16;107971.50;;;-141.02;100.00
8477;BME280;4275;42.854;23.222;2023-08-08T05:05:43;107971.50;;;-141.02;100.00
8477;BME280;4275;42.854;23.222;2023-08-08T05:08:12;107971.50;;;-141.02;100.00
8477;BME280;4275;42.854;23.222;2023-08-08T05:10:40;107971.50;;;-141.02;100.00
8477;BME280;4275;42.854;23.222;2023-08-08T05:13:07;107971.50;;;-141.02;100.00
8477;BME280;4275;42.854;23.222;2023-08-08T05:15:34;107971.50;;;-141.02;100.00
8477;BME280;4275;42.854;23.222;2023-08-08T05:18:01;107971.50;;;-141.02;100.00
8477;BME280;4275;42.854;23.222;2023-08-08T05:20:28;107971.50;;;-141.02;100.00
8477;BME280;4275;42.854;23.222;2023-08-08T05:22:55;107971.50;;;-141.02;100.00
8477;BME280;4275;42.854;23.222;2023-08-08T05:25:23;107971.50;;;-141.02;100.00
8477;BME280;4275;42.854;23.222;2023-08-08T05:27:51;107971.50;;;-141.02;100.00
8477;BME280;4275;42.854;23.222;2023-08-08T05:30:19;107971.50;;;-141.02;100.00
8477;BME280;4275;42.854;23.222;2023-08-08T05:32:46;107971.50;;;-141.02;100.00
8477;BME280;4275;42.854;23.222;2023-08-08T05:35:13;107971.50;;;-141.02;100.00
8477;BME280;4275;42.854;23.222;2023-08-08T05:37:40;107971.50;;;-141.02;100.00
8477;BME280;4275;42.854;23.222;2023-08-08T05:40:08;107971.50;;;-141.02;100.00
8477;BME280;4275;42.854;23.222;2023-08-08T05:42:37;107971.50;;;-141.02;100.00
8477;BME280;4275;42.854;23.222;2023-08-08T05:45:05;107971.50;;;-141.02;100.00
8477;BME280;4275;42.854;23.222;2023-08-08T05:47:33;107971.50;;;-141.02;100.00
8477;BME280;4275;42.854;23.222;2023-08-08T05:50:00;107971.50;;;-141.02;100.00
8477;BME280;4275;42.854;23.222;2023-08-08T05:52:27;107971.50;;;-141.02;100.00
8477;BME280;4275;42.854;23.222;2023-08-08T05:54:54;107971.50;;;-141.02;100.00
8477;BME280;4275;42.854;23.222;2023-08-08T05:57:21;107971.50;;;-141.02;100.00
8477;BME280;4275;42.854;23.222;2023-08-08T05:59:50;107971.50;;;-141.02;100.00
8477;BME280;4275;42.854;23.222;2023-08-08T06:02:17;107971.50;;;-141.02;100.00
8477;BME280;4275;42.854;23.222;2023-08-08T06:04:44;107969.53;;;-141.02;100.00
8477;BME280;4275;42.854;23.222;2023-08-08T06:07:11;107218.31;;;-141.02;100.00
8477;BME280;4275;42.854;23.222;2023-08-08T06:09:38;105966.59;;;-141.02;100.00
8477;BME280;4275;42.854;23.222;2023-08-08T06:12:06;106717.56;;;-141.02;100.00
8477;BME280;4275;42.854;23.222;2023-08-08T06:14:33;105966.59;;;-141.02;100.00
8477;BME280;4275;42.854;23.222;2023-08-08T06:17:02;105716.31;;;-141.02;100.00
8477;BME280;4275;42.854;23.222;2023-08-08T06:19:29;104965.56;;;-141.02;100.00
8477;BME280;4275;42.854;23.222;2023-08-08T06:21:56;103214.44;;;-141.02;100.00
8477;BME280;4275;42.854;23.222;2023-08-08T06:24:23;101964.16;;;-141.02;100.00
8477;BME280;4275;42.854;23.222;2023-08-08T06:26:50;101214.22;;;-141.02;100.00
8477;BME280;4275;42.854;23.222;2023-08-08T06:29:17;98715.56;;;-141.02;100.00
8477;BME280;4275;42.854;23.222;2023-08-08T06:31:44;96468.31;;;-141.02;100.00
8477;BME280;4275;42.854;23.222;2023-08-08T06:34:12;94222.50;;;-141.02;100.00
8477;BME280;4275;42.854;23.222;2023-08-08T06:36:40;93224.84;;;-141.02;100.00
8477;BME280;4275;42.854;23.222;2023-08-08T06:39:08;94222.50;;;-141.02;100.00
8477;BME280;4275;42.854;23.222;2023-08-08T06:41:36;93723.63;;;-141.02;100.00
8477;BME280;4275;42.854;23.222;2023-08-08T06:44:04;91978.16;;;-141.02;100.00
8477;BME280;4275;42.854;23.222;2023-08-08T06:46:31;90981.13;;;-141.02;100.00
8477;BME280;4275;42.854;23.222;2023-08-08T06:48:58;91978.16;;;-141.02;100.00
8477;BME280;4275;42.854;23.222;2023-08-08T06:51:28;90482.72;;;-141.02;100.00
8477;BME280;4275;42.854;23.222;2023-08-08T06:53:55;87742.81;;;-141.02;100.00
8477;BME280;4275;42.854;23.222;2023-08-08T06:56:22;87742.81;;;-141.02;100.00
8477;BME280;4275;42.854;23.222;2023-08-08T06:58:49;84507.50;;;-141.02;100.00
8477;BME280;4275;42.854;23.222;2023-08-08T07:01:16;84258.75;;;-141.02;100.00
8477;BME280;4275;42.854;23.222;2023-08-08T07:03:43;83263.97;;;-141.02;100.00
8477;BME280;4275;42.854;23.222;2023-08-08T07:06:10;83761.31;;;-141.02;100.00
8477;BME280;4275;42.854;23.222;2023-08-08T07:08:39;83761.31;;;-141.02;100.00
8477;BME280;4275;42.854;23.222;2023-08-08T07:11:06;81523.75;;;-141.02;100.00
8477;BME280;4275;42.854;23.222;2023-08-08T07:13:33;79784.44;;;-141.02;100.00
8477;BME280;4275;42.854;23.222;2023-08-08T07:16:00;80529.75;;;-141.02;100.00
8477;BME280;4275;42.854;23.222;2023-08-08T07:18:27;78542.63;;;-141.02;100.00
8477;BME280;4275;42.854;23.222;2023-08-08T07:20:54;75315.94;;;-141.02;99.36
8477;BME280;4275;42.854;23.222;2023-08-08T07:23:22;76308.44;;;-141.02;100.00
8477;BME280;4275;42.854;23.222;2023-08-08T07:25:50;76060.28;;;-141.02;100.00
8477;BME280;4275;42.854;23.222;2023-08-08T07:28:17;75067.88;;;-141.02;100.00
8477;BME280;4275;42.854;23.222;2023-08-08T07:30:44;77797.72;;;-141.02;100.00
8477;BME280;4275;42.854;23.222;2023-08-08T07:33:11;76060.28;;;-141.02;100.00
8477;BME280;4275;42.854;23.222;2023-08-08T07:35:40;74075.72;;;-141.02;97.65
8477;BME280;4275;42.854;23.222;2023-08-08T07:38:07;70357.75;;;-141.02;93.17
8477;BME280;4275;42.854;23.222;2023-08-08T07:40:34;68376.50;;;-141.02;89.59
8477;BME280;4275;42.854;23.222;2023-08-08T07:43:03;67386.28;;;-141.02;89.50
8477;BME280;4275;42.854;23.222;2023-08-08T07:45:30;69366.97;;;-141.02;95.94
8477;BME280;4275;42.854;23.222;2023-08-08T07:47:57;67386.28;;;-141.02;94.00
8477;BME280;4275;42.854;23.222;2023-08-08T07:50:24;65654.13;;;-141.02;93.79
8477;BME280;4275;42.854;23.222;2023-08-08T07:52:51;67881.38;;;-141.02;97.53
8477;BME280;4275;42.854;23.222;2023-08-08T07:55:18;65406.75;;;-141.02;91.95
8477;BME280;4275;42.854;23.222;2023-08-08T07:57:46;64170.13;;;-141.02;94.09
8477;BME280;4275;42.854;23.222;2023-08-08T08:00:15;64912.06;;;-141.02;92.18
8477;BME280;4275;42.854;23.222;2023-08-08T08:02:45;65159.41;;;-141.02;91.10
8477;BME280;4275;42.854;23.222;2023-08-08T08:05:13;66148.94;;;-141.02;89.44
8477;BME280;4275;42.854;23.222;2023-08-08T08:07:40;64417.41;;;-141.02;84.15
8477;BME280;4275;42.854;23.222;2023-08-08T08:10:10;64170.13;;;-141.02;81.80
8477;BME280;4275;42.854;23.222;2023-08-08T08:12:39;58981.19;;;-141.02;80.04
8477;BME280;4275;42.854;23.222;2023-08-08T08:15:08;62686.75;;;-141.02;87.36
8477;BME280;4275;42.854;23.222;2023-08-08T08:17:36;61204.03;;;-141.02;83.83
8477;BME280;4275;42.854;23.222;2023-08-08T08:20:05;56910.13;;;-141.02;81.81
8477;BME280;4275;42.854;23.222;2023-08-08T08:22:36;58981.19;;;-141.02;84.72
8477;BME280;4275;42.854;23.222;2023-08-08T08:25:04;55776.78;;;-141.02;84.57
8477;BME280;4275;42.854;23.222;2023-08-08T08:27:33;60215.94;;;-141.02;87.86
8477;BME280;4275;42.854;23.222;2023-08-08T08:30:00;59228.09;;;-141.02;84.81
8477;BME280;4275;42.854;23.222;2023-08-08T08:32:27;56975.69;;;-141.02;86.10
8477;BME280;4275;42.854;23.222;2023-08-08T08:34:56;58223.19;;;-141.02;85.30
8477;BME280;4275;42.854;23.222;2023-08-08T08:37:23;59475.03;;;-141.02;86.27
8477;BME280;4275;42.854;23.222;2023-08-08T08:39:50;60215.94;;;-141.02;83.83
8477;BME280;4275;42.854;23.222;2023-08-08T08:42:17;54035.13;;;-141.02;82.14
8477;BME280;4275;42.854;23.222;2023-08-08T08:44:46;53118.41;;;-141.02;82.33
8477;BME280;4275;42.854;23.222;2023-08-08T08:47:17;52662.06;;;-141.02;83.36
8477;BME280;4275;42.854;23.222;2023-08-08T08:49:46;54801.81;;;-141.02;85.47
8477;BME280;4275;42.854;23.222;2023-08-08T08:52:15;53611.41;;;-141.02;84.19
8477;BME280;4275;42.854;23.222;2023-08-08T08:54:42;53827.13;;;-141.02;83.99
8477;BME280;4275;42.854;23.222;2023-08-08T08:57:09;50887.38;;;-141.02;80.89
8477;BME280;4275;42.854;23.222;2023-08-08T08:59:37;52078.75;;;-141.02;83.23
8477;BME280;4275;42.854;23.222;2023-08-08T09:02:04;51701.47;;;-141.02;81.58
8477;BME280;4275;42.854;23.222;2023-08-08T09:04:33;52613.94;;;-141.02;86.91
8477;BME280;4275;42.854;23.222;2023-08-08T09:07:01;54185.38;;;-141.02;84.56
8477;BME280;4275;42.854;23.222;2023-08-08T09:09:32;54848.06;;;-141.02;81.74
8477;BME280;4275;42.854;23.222;2023-08-08T09:12:03;54131.44;;;-141.02;80.34
8477;BME280;4275;42.854;23.222;2023-08-08T09:14:31;51888.19;;;-141.02;80.02
8477;BME280;4275;42.854;23.222;2023-08-08T09:16:58;52525.38;;;-141.02;82.37
8477;BME280;4275;42.854;23.222;2023-08-08T09:19:25;51601.38;;;-141.02;80.54
8477;BME280;4275;42.854;23.222;2023-08-08T09:21:52;51992.13;;;-141.02;80.79
8477;BME280;4275;42.854;23.222;2023-08-08T09:24:20;50300.50;;;-141.02;82.29
8477;BME280;4275;42.854;23.222;2023-08-08T09:26:48;49613.69;;;-141.02;83.12
8477;BME280;4275;42.854;23.222;2023-08-08T09:29:15;50598.75;;;-141.02;87.42
8477;BME280;4275;42.854;23.222;2023-08-08T09:31:43;50323.59;;;-141.02;85.20
8477;BME280;4275;42.854;23.222;2023-08-08T09:34:12;51509.00;;;-141.02;84.78
8477;BME280;4275;42.854;23.222;2023-08-08T09:36:40;51412.75;;;-141.02;83.91
8477;BME280;4275;42.854;23.222;2023-08-08T09:39:10;50604.50;;;-141.02;83.77
8477;BME280;4275;42.854;23.222;2023-08-08T09:41:38;51166.41;;;-141.02;86.09
8477;BME280;4275;42.854;23.222;2023-08-08T09:44:08;48934.75;;;-141.02;81.87
8477;BME280;4275;42.854;23.222;2023-08-08T09:46:35;48869.34;;;-141.02;85.35
8477;BME280;4275;42.854;23.222;2023-08-08T09:49:03;49150.16;;;-141.02;86.56
8477;BME280;4275;42.854;23.222;2023-08-08T09:51:30;49140.53;;;-141.02;86.84
8477;BME280;4275;42.854;23.222;2023-08-08T09:53:59;50596.81;;;-141.02;88.17
8477;BME280;4275;42.854;23.222;2023-08-08T09:56:27;53418.81;;;-141.02;86.78
8477;BME280;4275;42.854;23.222;2023-08-08T09:58:57;51686.06;;;-141.02;83.41
8477;BME280;4275;42.854;23.222;2023-08-08T10:01:27;50400.56;;;-141.02;82.52
8477;BME280;4275;42.854;23.222;2023-08-08T10:03:54;50369.78;;;-141.02;83.00
8477;BME280;4275;42.854;23.222;2023-08-08T10:06:21;51085.59;;;-141.02;83.56
8477;BME280;4275;42.854;23.222;2023-08-08T10:08:48;50204.31;;;-141.02;81.72
8477;BME280;4275;42.854;23.222;2023-08-08T10:11:17;50527.53;;;-141.02;82.58
8477;BME280;4275;42.854;23.222;2023-08-08T10:13:49;50027.31;;;-141.02;81.27
8477;BME280;4275;42.854;23.222;2023-08-08T10:16:17;52163.44;;;-141.02;80.99
8477;BME280;4275;42.854;23.222;2023-08-08T10:18:46;52171.16;;;-141.02;79.08
8477;BME280;4275;42.854;23.222;2023-08-08T10:21:23;50843.13;;;-141.02;76.71
8477;BME280;4275;42.854;23.222;2023-08-08T10:24:01;49665.63;;;-141.02;76.69
8477;BME280;4275;42.854;23.222;2023-08-08T10:26:28;49223.22;;;-141.02;78.12
8477;BME280;4275;42.854;23.222;2023-08-08T10:28:56;48923.19;;;-141.02;78.89
8477;BME280;4275;42.854;23.222;2023-08-08T10:31:23;49269.41;;;-141.02;80.05
8477;BME280;4275;42.854;23.222;2023-08-08T10:34:01;50693.03;;;-141.02;80.32
8477;BME280;4275;42.854;23.222;2023-08-08T10:36:43;49023.22;;;-141.02;76.32
8477;BME280;4275;42.854;23.222;2023-08-08T10:39:15;50285.09;;;-141.02;77.97
8477;BME280;4275;42.854;23.222;2023-08-08T10:41:46;48811.66;;;-141.02;75.78
8477;BME280;4275;42.854;23.222;2023-08-08T10:44:13;48575.13;;;-141.02;77.74
8477;BME280;4275;42.854;23.222;2023-08-08T10:46:44;49657.94;;;-141.02;77.99
8477;BME280;4275;42.854;23.222;2023-08-08T10:49:13;49315.56;;;-141.02;78.88
8477;BME280;4275;42.854;23.222;2023-08-08T10:51:43;48607.81;;;-141.02;77.48
8477;BME280;4275;42.854;23.222;2023-08-08T10:54:13;47117.78;;;-141.02;77.55
8477;BME280;4275;42.854;23.222;2023-08-08T10:56:41;47044.72;;;-141.02;77.98
8477;BME280;4275;42.854;23.222;2023-08-08T10:59:15;47062.03;;;-141.02;76.82
8477;BME280;4275;42.854;23.222;2023-08-08T11:01:45;47757.94;;;-141.02;77.98
8477;BME280;4275;42.854;23.222;2023-08-08T11:04:15;47692.56;;;-141.02;75.81
8477;BME280;4275;42.854;23.222;2023-08-08T11:06:42;47315.78;;;-141.02;76.81
8477;BME280;4275;42.854;23.222;2023-08-08T11:09:09;47915.59;;;-141.02;79.07
8477;BME280;4275;42.854;23.222;2023-08-08T11:11:37;48427.03;;;-141.02;78.62
8477;BME280;4275;42.854;23.222;2023-08-08T11:14:12;47765.63;;;-141.02;77.74
8477;BME280;4275;42.854;23.222;2023-08-08T11:16:39;46643.03;;;-141.02;77.86
8477;BME280;4275;42.854;23.222;2023-08-08T11:19:07;46915.94;;;-141.02;79.71
8477;BME280;4275;42.854;23.222;2023-08-08T11:21:36;47269.63;;;-141.02;78.29
8477;BME280;4275;42.854;23.222;2023-08-08T11:24:05;46650.72;;;-141.02;75.91
8477;BME280;4275;42.854;23.222;2023-08-08T11:26:33;47779.06;;;-141.02;79.03
8477;BME280;4275;42.854;23.222;2023-08-08T11:29:01;47494.56;;;-141.02;77.93
8477;BME280;4275;42.854;23.222;2023-08-08T11:31:29;47838.69;;;-141.02;77.34
8477;BME280;4275;42.854;23.222;2023-08-08T11:33:57;49334.78;;;-141.02;77.34
8477;BME280;4275;42.854;23.222;2023-08-08T11:36:25;49375.19;;;-141.02;74.27
8477;BME280;4275;42.854;23.222;2023-08-08T11:38:55;49084.75;;;-141.02;74.44
8477;BME280;4275;42.854;23.222;2023-08-08T11:41:24;47890.59;;;-141.02;72.79
8477;BME280;4275;42.854;23.222;2023-08-08T11:43:52;47150.47;;;-141.02;72.82
8477;BME280;4275;42.854;23.222;2023-08-08T11:46:23;46716.06;;;-141.02;74.37
8477;BME280;4275;42.854;23.222;2023-08-08T11:48:51;47073.56;;;-141.02;76.98
8477;BME280;4275;42.854;23.222;2023-08-08T11:51:18;47023.59;;;-141.02;75.78
8477;BME280;4275;42.854;23.222;2023-08-08T11:53:48;48377.03;;;-141.02;74.90
8477;BME280;4275;42.854;23.222;2023-08-08T11:56:19;48484.72;;;-141.02;72.18
8477;BME280;4275;42.854;23.222;2023-08-08T11:58:46;48319.38;;;-141.02;72.74
8477;BME280;4275;42.854;23.222;2023-08-08T12:01:14;49636.78;;;-141.02;72.81
8477;BME280;4275;42.854;23.222;2023-08-08T12:03:41;50040.78;;;-141.02;71.56
8477;BME280;4275;42.854;23.222;2023-08-08T12:06:12;48319.38;;;-141.02;69.99
8477;BME280;4275;42.854;23.222;2023-08-08T12:08:41;48073.25;;;-141.02;69.27
8477;BME280;4275;42.854;23.222;2023-08-08T12:11:08;48557.81;;;-141.02;69.94
8477;BME280;4275;42.854;23.222;2023-08-08T12:13:38;48734.72;;;-141.02;70.20
8477;BME280;4275;42.854;23.222;2023-08-08T12:16:07;48590.50;;;-141.02;70.13
8477;BME280;4275;42.854;23.222;2023-08-08T12:18:36;50054.25;;;-141.02;68.26
8477;BME280;4275;42.854;23.222;2023-08-08T12:21:03;48327.06;;;-141.02;66.74
8477;BME280;4275;42.854;23.222;2023-08-08T12:23:31;48430.88;;;-141.02;67.46
8477;BME280;4275;42.854;23.222;2023-08-08T12:25:59;46054.97;;;-141.02;66.91
8477;BME280;4275;42.854;23.222;2023-08-08T12:28:26;46289.41;;;-141.02;67.62
8477;BME280;4275;42.854;23.222;2023-08-08T12:30:55;48184.75;;;-141.02;68.16
8477;BME280;4275;42.854;23.222;2023-08-08T12:33:22;47419.56;;;-141.02;65.74
8477;BME280;4275;42.854;23.222;2023-08-08T12:35:49;47619.50;;;-141.02;66.80
8477;BME280;4275;42.854;23.222;2023-08-08T12:38:16;48378.97;;;-141.02;65.21
8477;BME280;4275;42.854;23.222;2023-08-08T12:40:43;48173.22;;;-141.02;63.17
8477;BME280;4275;42.854;23.222;2023-08-08T12:43:10;46812.16;;;-141.02;64.10
8477;BME280;4275;42.854;23.222;2023-08-08T12:45:39;46370.13;;;-141.02;64.60
8477;BME280;4275;42.854;23.222;2023-08-08T12:48:08;46654.56;;;-141.02;63.88
8477;BME280;4275;42.854;23.222;2023-08-08T12:50:35;47042.81;;;-141.02;62.47
8477;BME280;4275;42.854;23.222;2023-08-08T12:53:02;47917.50;;;-141.02;63.80
8477;BME280;4275;42.854;23.222;2023-08-08T12:55:29;48034.78;;;-141.02;62.00
8477;BME280;4275;42.854;23.222;2023-08-08T12:57:57;48605.88;;;-141.02;62.05
8477;BME280;4275;42.854;23.222;2023-08-08T13:00:24;47040.88;;;-141.02;59.83
8477;BME280;4275;42.854;23.222;2023-08-08T13:02:51;46789.09;;;-141.02;61.59
8477;BME280;4275;42.854;23.222;2023-08-08T13:05:19;46277.88;;;-141.02;64.68
8477;BME280;4275;42.854;23.222;2023-08-08T13:07:46;45801.34;;;-141.02;63.34
8477;BME280;4275;42.854;23.222;2023-08-08T13:10:13;44448.91;;;-141.02;64.46
8477;BME280;4275;42.854;23.222;2023-08-08T13:12:40;44740.88;;;-141.02;65.38
8477;BME280;4275;42.854;23.222;2023-08-08T13:15:08;46573.84;;;-141.02;65.19
8477;BME280;4275;42.854;23.222;2023-08-08T13:17:35;47138.91;;;-141.02;63.16